createdAt,value
2022-11-29T00:01:42.713Z,21.45
2022-11-29T00:04:11.454Z,23.33
2022-11-29T00:06:40.940Z,24.30
2022-11-29T00:09:12.247Z,22.23
2022-11-29T00:12:00.437Z,24.70
2022-11-29T00:14:29.553Z,23.08
2022-11-29T00:17:01.988Z,20.45
2022-11-29T00:19:32.293Z,22.05
2022-11-29T00:22:01.151Z,26.30
2022-11-29T00:24:31.678Z,24.25
2022-11-29T00:27:00.604Z,23.13
2022-11-29T00:29:29.981Z,21.15
2022-11-29T00:31:59.749Z,21.75
2022-11-29T00:34:28.799Z,24.33
2022-11-29T00:36:57.410Z,24.70
2022-11-29T00:39:25.959Z,25.20
2022-11-29T00:41:54.817Z,23.75
2022-11-29T00:44:23.198Z,20.55
2022-11-29T00:46:51.606Z,22.90
2022-11-29T00:49:20.077Z,20.88
2022-11-29T00:51:48.501Z,22.42
2022-11-29T00:54:17.031Z,24.95
2022-11-29T00:56:45.442Z,20.50
2022-11-29T00:59:13.833Z,22.58
2022-11-29T01:01:42.295Z,23.58
2022-11-29T01:04:10.696Z,19.92
2022-11-29T01:06:39.220Z,22.95
2022-11-29T01:09:07.626Z,21.40
2022-11-29T01:11:36.067Z,22.38
2022-11-29T01:14:04.541Z,21.92
2022-11-29T01:16:33.755Z,20.27
2022-11-29T01:19:02.612Z,17.60
2022-11-29T01:21:30.970Z,26.35
2022-11-29T01:24:00.806Z,24.50
2022-11-29T01:26:31.177Z,21.80
2022-11-29T01:28:59.756Z,24.58
2022-11-29T01:31:31.341Z,20.70
2022-11-29T01:34:02.479Z,23.23
2022-11-29T01:36:31.573Z,23.90
2022-11-29T01:39:01.644Z,20.65
2022-11-29T01:41:32.454Z,24.90
2022-11-29T01:44:26.897Z,25.73
2022-11-29T01:46:56.739Z,24.52
2022-11-29T01:49:47.308Z,23.85
2022-11-29T01:52:19.200Z,23.15
2022-11-29T01:54:50.834Z,23.65
2022-11-29T01:57:20.286Z,26.10
2022-11-29T01:59:52.402Z,24.42
2022-11-29T02:04:53.143Z,18.67
2022-11-29T02:07:21.648Z,24.63
2022-11-29T02:09:50.024Z,24.55
2022-11-29T02:12:33.655Z,22.80
2022-11-29T02:15:24.472Z,26.05
2022-11-29T02:18:21.013Z,24.77
2022-11-29T02:21:02.413Z,24.77
2022-11-29T02:23:45.959Z,24.33
2022-11-29T02:26:33.109Z,29.00
2022-11-29T02:29:31.683Z,24.52
2022-11-29T02:32:21.795Z,23.33
2022-11-29T02:34:56.900Z,23.70
2022-11-29T02:37:56.797Z,26.88
2022-11-29T02:40:39.272Z,24.73
2022-11-29T02:43:16.777Z,24.90
2022-11-29T02:46:03.974Z,25.63
2022-11-29T02:48:52.391Z,27.35
2022-11-29T02:51:32.666Z,30.27
2022-11-29T02:54:16.763Z,32.53
2022-11-29T02:56:58.889Z,25.85
2022-11-29T03:00:03.802Z,29.70
2022-11-29T03:02:54.093Z,27.52
2022-11-29T03:05:47.058Z,32.97
2022-11-29T03:08:34.042Z,32.45
2022-11-29T03:11:22.011Z,31.60
2022-11-29T03:14:06.517Z,40.17
2022-11-29T03:16:54.584Z,34.63
2022-11-29T03:19:53.399Z,26.45
2022-11-29T03:22:40.734Z,27.30
2022-11-29T03:25:17.702Z,31.05
2022-11-29T03:27:50.207Z,36.03
2022-11-29T03:30:19.938Z,37.03
2022-11-29T03:33:07.952Z,58.80
2022-11-29T03:36:14.877Z,31.80
2022-11-29T03:38:46.414Z,33.70
2022-11-29T03:41:23.490Z,29.20
2022-11-29T03:44:12.058Z,39.00
2022-11-29T03:46:54.609Z,38.17
2022-11-29T03:49:31.008Z,32.42
2022-11-29T03:52:35.721Z,30.35
2022-11-29T03:55:30.904Z,45.80
2022-11-29T03:58:20.294Z,37.42
2022-11-29T04:00:48.643Z,77.38
2022-11-29T04:03:20.031Z,32.58
2022-11-29T04:06:10.820Z,51.58
2022-11-29T04:09:00.262Z,39.25
2022-11-29T04:11:59.839Z,63.40
2022-11-29T04:14:54.565Z,32.58
2022-11-29T04:17:41.439Z,31.75
2022-11-29T04:20:29.601Z,31.23
2022-11-29T04:23:22.986Z,52.50
2022-11-29T04:26:12.946Z,37.85
2022-11-29T04:29:03.600Z,35.60
2022-11-29T04:32:00.009Z,53.33
2022-11-29T04:34:53.788Z,33.25
2022-11-29T04:37:47.045Z,27.77
2022-11-29T04:40:24.441Z,40.10
2022-11-29T04:43:11.334Z,33.88
2022-11-29T04:45:59.371Z,41.28
2022-11-29T04:48:37.396Z,35.35
2022-11-29T04:51:30.209Z,31.13
2022-11-29T04:54:15.482Z,36.85
2022-11-29T04:56:50.772Z,28.85
2022-11-29T04:59:40.726Z,29.58
2022-11-29T05:02:37.376Z,30.67
2022-11-29T05:05:41.092Z,39.88
2022-11-29T05:08:27.145Z,38.47
2022-11-29T05:11:34.300Z,39.03
2022-11-29T05:14:51.083Z,35.25
2022-11-29T05:17:38.326Z,30.20
2022-11-29T05:20:31.723Z,49.58
2022-11-29T05:23:34.360Z,40.03
2022-11-29T05:26:15.872Z,40.40
2022-11-29T05:28:57.476Z,58.43
2022-11-29T05:31:58.637Z,59.00
2022-11-29T05:34:54.620Z,47.90
2022-11-29T05:37:44.943Z,58.63
2022-11-29T05:40:13.289Z,55.47
2022-11-29T05:42:59.479Z,61.88
2022-11-29T05:45:35.462Z,38.30
2022-11-29T05:48:25.329Z,38.85
2022-11-29T05:51:37.098Z,34.90
2022-11-29T05:54:08.383Z,34.03
2022-11-29T05:56:48.342Z,31.47
2022-11-29T05:59:24.565Z,33.75
2022-11-29T06:02:09.522Z,36.10
2022-11-29T06:04:57.242Z,39.95
2022-11-29T06:07:58.967Z,33.83
2022-11-29T06:10:39.878Z,34.45
2022-11-29T06:13:26.528Z,34.30
2022-11-29T06:16:22.939Z,32.10
2022-11-29T06:19:19.267Z,32.50
2022-11-29T06:22:24.316Z,33.97
2022-11-29T06:25:11.650Z,33.45
2022-11-29T06:28:18.192Z,32.80
2022-11-29T06:31:03.379Z,29.25
2022-11-29T06:33:44.501Z,30.83
2022-11-29T06:36:25.145Z,37.25
2022-11-29T06:38:53.842Z,31.05
2022-11-29T06:41:24.190Z,49.60
2022-11-29T06:43:53.032Z,37.25
2022-11-29T06:46:47.915Z,31.88
2022-11-29T06:49:41.120Z,31.77
2022-11-29T06:52:23.019Z,30.23
2022-11-29T06:55:06.154Z,34.40
2022-11-29T06:57:46.820Z,30.10
2022-11-29T07:00:20.356Z,30.75
2022-11-29T07:02:51.668Z,30.20
2022-11-29T07:05:34.609Z,36.30
2022-11-29T07:08:06.724Z,28.95
2022-11-29T07:10:37.665Z,27.67
2022-11-29T07:13:06.681Z,29.48
2022-11-29T07:15:37.464Z,28.70
2022-11-29T07:18:51.055Z,30.63
2022-11-29T07:21:44.212Z,29.45
2022-11-29T07:24:27.950Z,29.67
2022-11-29T07:27:05.403Z,28.58
2022-11-29T07:29:57.166Z,31.10
2022-11-29T07:33:08.109Z,25.67
2022-11-29T07:35:55.362Z,26.85
2022-11-29T07:38:55.887Z,26.38
2022-11-29T07:41:36.597Z,31.55
2022-11-29T07:44:30.203Z,28.83
2022-11-29T07:46:58.767Z,28.17
2022-11-29T07:49:27.326Z,27.85
2022-11-29T07:51:56.014Z,28.73
2022-11-29T07:54:24.689Z,33.53
2022-11-29T07:56:53.122Z,32.13
2022-11-29T07:59:21.762Z,23.83
2022-11-29T08:01:50.211Z,27.98
2022-11-29T08:04:18.693Z,24.25
2022-11-29T08:06:47.170Z,26.05
2022-11-29T08:09:15.710Z,30.05
2022-11-29T08:11:44.853Z,25.52
2022-11-29T08:14:13.243Z,27.95
2022-11-29T08:16:41.867Z,30.27
2022-11-29T08:19:10.392Z,26.17
2022-11-29T08:21:38.845Z,29.10
2022-11-29T08:24:07.376Z,26.50
2022-11-29T08:26:35.847Z,23.85
2022-11-29T08:29:04.369Z,26.70
2022-11-29T08:31:32.937Z,25.33
2022-11-29T08:34:01.826Z,29.38
2022-11-29T08:36:30.491Z,24.75
2022-11-29T08:39:05.997Z,27.88
2022-11-29T08:41:37.493Z,26.30
2022-11-29T08:44:06.449Z,27.88
2022-11-29T08:46:53.846Z,25.63
2022-11-29T08:49:22.295Z,28.13
2022-11-29T08:52:13.474Z,25.80
2022-11-29T08:54:41.962Z,22.70
2022-11-29T08:57:38.396Z,26.25
2022-11-29T08:59:59.596Z,28.35
2022-11-29T09:02:28.121Z,27.92
2022-11-29T09:04:56.847Z,27.98
2022-11-29T09:07:25.320Z,30.02
2022-11-29T09:09:53.814Z,35.75
2022-11-29T09:12:22.354Z,34.17
2022-11-29T09:14:50.746Z,31.55
2022-11-29T09:17:19.124Z,28.25
2022-11-29T09:19:47.557Z,31.85
2022-11-29T09:22:15.974Z,36.05
2022-11-29T09:24:46.474Z,33.80
2022-11-29T09:27:15.154Z,33.75
2022-11-29T09:29:43.639Z,37.95
2022-11-29T09:32:12.022Z,41.17
2022-11-29T09:34:42.189Z,32.90
2022-11-29T09:37:10.837Z,37.13
2022-11-29T09:39:41.536Z,39.45
2022-11-29T09:42:23.908Z,53.00
2022-11-29T09:48:16.159Z,77.03
2022-11-29T09:51:23.470Z,84.15
2022-11-29T09:54:10.579Z,57.85
2022-11-29T09:56:46.974Z,46.88
2022-11-29T09:59:32.750Z,37.47
2022-11-29T10:02:15.871Z,30.25
2022-11-29T10:04:53.496Z,35.40
2022-11-29T10:07:30.814Z,40.08
2022-11-29T10:10:33.377Z,30.02
2022-11-29T10:13:23.814Z,33.20
2022-11-29T10:16:04.360Z,36.10
2022-11-29T10:18:44.030Z,33.63
2022-11-29T10:21:25.549Z,33.10
2022-11-29T10:24:01.435Z,33.50
2022-11-29T10:26:34.984Z,33.67
2022-11-29T10:29:04.980Z,27.42
2022-11-29T10:31:37.762Z,28.63
2022-11-29T10:34:32.521Z,26.83
2022-11-29T10:37:02.695Z,28.52
2022-11-29T10:39:49.003Z,31.75
2022-11-29T10:42:41.877Z,27.77
2022-11-29T10:45:30.708Z,24.27
2022-11-29T10:48:04.991Z,31.00
2022-11-29T10:50:36.224Z,25.35
2022-11-29T10:53:14.331Z,25.97
2022-11-29T10:56:02.485Z,27.45
2022-11-29T10:58:31.834Z,26.40
2022-11-29T11:01:02.267Z,27.02
2022-11-29T11:03:38.510Z,26.70
2022-11-29T11:06:19.358Z,27.13
2022-11-29T11:08:52.048Z,26.70
2022-11-29T11:11:39.372Z,29.77
2022-11-29T11:14:27.364Z,28.40
2022-11-29T11:16:56.315Z,26.63
2022-11-29T11:19:32.090Z,30.67
2022-11-29T11:22:03.946Z,29.48
2022-11-29T11:24:37.479Z,32.35
2022-11-29T11:27:06.132Z,24.70
2022-11-29T11:29:39.342Z,29.30
2022-11-29T11:32:17.033Z,26.35
2022-11-29T11:34:57.215Z,30.83
2022-11-29T11:37:28.726Z,32.47
2022-11-29T11:40:00.225Z,28.42
2022-11-29T11:42:40.367Z,31.13
2022-11-29T11:45:22.912Z,32.13
2022-11-29T11:47:53.890Z,31.45
2022-11-29T11:50:25.289Z,29.48
2022-11-29T11:52:57.371Z,27.65
2022-11-29T11:55:33.482Z,37.10
2022-11-29T11:58:09.774Z,32.17
2022-11-29T12:01:08.121Z,31.65
2022-11-29T12:03:48.435Z,32.13
2022-11-29T12:06:37.336Z,33.17
2022-11-29T12:09:46.299Z,28.65
2022-11-29T12:12:26.049Z,23.00
2022-11-29T12:15:21.914Z,25.45
2022-11-29T12:18:24.635Z,27.05
2022-11-29T12:23:35.336Z,24.85
2022-11-29T12:26:55.222Z,27.60
2022-11-29T12:29:16.627Z,30.02
2022-11-29T12:32:00.314Z,29.33
2022-11-29T12:35:07.215Z,31.67
2022-11-29T12:37:48.356Z,32.22
2022-11-29T12:40:54.497Z,31.27
2022-11-29T12:44:07.960Z,33.25
2022-11-29T12:46:38.155Z,38.60
2022-11-29T12:49:15.742Z,34.03
2022-11-29T12:51:54.253Z,34.20
2022-11-29T12:54:56.936Z,35.17
2022-11-29T13:00:21.035Z,37.17
2022-11-29T13:03:14.539Z,32.60
2022-11-29T13:06:37.372Z,32.75
2022-11-29T13:09:24.418Z,32.67
2022-11-29T13:11:58.360Z,34.75
2022-11-29T13:14:44.510Z,34.67
2022-11-29T13:17:48.628Z,32.85
2022-11-29T13:20:39.231Z,36.00
2022-11-29T13:24:07.492Z,33.92
2022-11-29T13:26:30.536Z,35.90
2022-11-29T13:29:01.136Z,37.58
2022-11-29T13:31:30.443Z,32.40
2022-11-29T13:34:01.877Z,31.75
2022-11-29T13:36:59.796Z,28.60
2022-11-29T13:39:46.509Z,27.75
2022-11-29T13:42:36.779Z,34.65
2022-11-29T13:45:26.977Z,36.17
2022-11-29T13:48:00.635Z,33.03
2022-11-29T13:50:35.092Z,32.90
2022-11-29T13:53:11.679Z,35.13
2022-11-29T13:55:49.549Z,32.40
2022-11-29T13:58:18.527Z,33.97
2022-11-29T14:00:49.783Z,33.17
2022-11-29T14:03:24.139Z,31.40
2022-11-29T14:06:22.198Z,35.58
2022-11-29T14:09:18.984Z,33.80
2022-11-29T14:11:51.228Z,36.90
2022-11-29T14:14:25.943Z,35.40
2022-11-29T14:17:01.229Z,44.13
2022-11-29T14:19:34.531Z,39.50
2022-11-29T14:22:03.011Z,36.58
2022-11-29T14:24:35.356Z,39.22
2022-11-29T14:27:06.959Z,41.65
2022-11-29T14:29:47.330Z,36.28
2022-11-29T14:32:46.209Z,39.22
2022-11-29T14:35:32.347Z,37.33
2022-11-29T14:38:23.082Z,39.60
2022-11-29T14:41:06.432Z,42.53
2022-11-29T14:43:41.587Z,36.00
2022-11-29T14:46:16.129Z,32.92
2022-11-29T14:48:58.811Z,33.83
2022-11-29T14:51:35.999Z,36.10
2022-11-29T14:54:15.414Z,33.30
2022-11-29T14:56:45.489Z,33.42
2022-11-29T14:59:42.568Z,39.47
2022-11-29T15:02:26.923Z,30.25
2022-11-29T15:04:57.390Z,35.55
2022-11-29T15:07:31.868Z,35.55
2022-11-29T15:10:04.812Z,37.45
2022-11-29T15:12:37.489Z,36.47
2022-11-29T15:15:18.081Z,40.85
2022-11-29T15:18:18.912Z,36.67
2022-11-29T15:21:03.729Z,38.28
2022-11-29T15:23:41.773Z,34.35
2022-11-29T15:26:28.338Z,34.42
2022-11-29T15:29:18.205Z,38.35
2022-11-29T15:31:52.273Z,34.60
2022-11-29T15:34:43.467Z,38.15
2022-11-29T15:37:23.082Z,38.60
2022-11-29T15:40:05.863Z,37.80
2022-11-29T15:42:44.693Z,42.08
2022-11-29T15:45:38.199Z,39.20
2022-11-29T15:48:20.764Z,34.10
2022-11-29T15:51:15.649Z,34.20
2022-11-29T15:54:12.057Z,32.80
2022-11-29T15:57:04.089Z,36.33
2022-11-29T16:00:10.771Z,37.92
2022-11-29T16:02:48.073Z,33.95
2022-11-29T16:05:22.439Z,36.30
2022-11-29T16:07:54.637Z,31.38
2022-11-29T16:10:33.573Z,31.70
2022-11-29T16:13:31.378Z,36.53
2022-11-29T16:16:11.836Z,34.10
2022-11-29T16:18:42.391Z,32.65
2022-11-29T16:21:29.442Z,36.20
2022-11-29T16:23:58.891Z,31.17
2022-11-29T16:26:34.418Z,32.53
2022-11-29T16:29:03.514Z,36.78
2022-11-29T16:31:35.074Z,33.72
2022-11-29T16:34:09.179Z,38.50
2022-11-29T16:36:37.661Z,37.67
2022-11-29T16:39:16.646Z,38.83
2022-11-29T16:42:02.550Z,33.45
2022-11-29T16:44:40.032Z,32.13
2022-11-29T16:47:29.860Z,34.53
2022-11-29T16:50:19.087Z,33.67
2022-11-29T16:52:52.018Z,32.30
2022-11-29T16:55:23.865Z,26.95
2022-11-29T16:57:52.488Z,35.42
2022-11-29T17:00:30.537Z,31.25
2022-11-29T17:02:59.579Z,27.08
2022-11-29T17:05:28.205Z,30.85
2022-11-29T17:07:56.801Z,26.60
2022-11-29T17:10:25.724Z,35.95
2022-11-29T17:12:54.194Z,30.77
2022-11-29T17:15:22.610Z,31.33
2022-11-29T17:17:50.934Z,33.85
2022-11-29T17:20:19.360Z,37.85
2022-11-29T17:22:47.796Z,36.20
2022-11-29T17:25:16.269Z,30.50
2022-11-29T17:27:44.748Z,31.60
2022-11-29T17:30:13.646Z,29.90
2022-11-29T17:32:42.070Z,31.08
2022-11-29T17:35:10.524Z,28.30
2022-11-29T17:37:38.832Z,33.60
2022-11-29T17:40:08.075Z,33.03
2022-11-29T17:42:36.514Z,35.13
2022-11-29T17:45:05.235Z,31.10
2022-11-29T17:47:33.594Z,32.83
2022-11-29T17:50:02.068Z,32.33
2022-11-29T17:52:31.387Z,37.08
2022-11-29T17:54:59.863Z,31.23
2022-11-29T17:57:28.307Z,34.65
2022-11-29T17:59:56.691Z,33.47
2022-11-29T18:02:25.188Z,40.35
2022-11-29T18:04:53.654Z,31.90
2022-11-29T18:07:22.126Z,32.40
2022-11-29T18:09:51.012Z,31.50
2022-11-29T18:12:20.115Z,33.78
2022-11-29T18:14:50.727Z,36.67
2022-11-29T18:17:19.161Z,34.88
2022-11-29T18:19:47.827Z,32.05
2022-11-29T18:22:16.563Z,31.95
2022-11-29T18:24:44.995Z,33.75
2022-11-29T18:27:13.482Z,33.10
2022-11-29T18:29:41.848Z,32.83
2022-11-29T18:32:10.278Z,28.88
2022-11-29T18:34:38.723Z,29.10
2022-11-29T18:37:12.321Z,37.75
2022-11-29T18:39:44.339Z,31.75
2022-11-29T18:42:13.006Z,32.85
2022-11-29T18:44:41.425Z,29.45
2022-11-29T18:47:09.760Z,34.70
2022-11-29T18:49:38.187Z,35.13
2022-11-29T18:52:06.692Z,32.90
2022-11-29T18:54:35.229Z,33.80
2022-11-29T18:57:03.616Z,31.30
2022-11-29T18:59:32.023Z,34.30
2022-11-29T19:02:00.399Z,35.10
2022-11-29T19:04:28.790Z,34.83
2022-11-29T19:06:57.270Z,39.75
2022-11-29T19:09:25.811Z,33.47
2022-11-29T19:11:54.150Z,41.45
2022-11-29T19:14:22.507Z,36.95
2022-11-29T19:16:50.970Z,38.80
2022-11-29T19:19:19.392Z,38.55
2022-11-29T19:21:48.059Z,33.30
2022-11-29T19:24:18.403Z,42.50
2022-11-29T19:26:48.065Z,39.38
2022-11-29T19:29:17.252Z,36.97
2022-11-29T19:31:45.779Z,33.50
2022-11-29T19:34:14.219Z,37.20
2022-11-29T19:36:43.861Z,36.50
2022-11-29T19:39:15.209Z,36.58
2022-11-29T19:41:46.675Z,38.03
2022-11-29T19:44:15.181Z,37.40
2022-11-29T19:46:46.981Z,39.10
2022-11-29T19:49:15.463Z,35.35
2022-11-29T19:51:43.838Z,35.83
2022-11-29T19:54:12.328Z,45.47
2022-11-29T19:56:40.791Z,36.28
2022-11-29T19:59:09.275Z,39.95
2022-11-29T20:01:41.409Z,39.20
2022-11-29T20:04:13.116Z,40.88
2022-11-29T20:06:41.673Z,43.78
2022-11-29T20:09:11.702Z,42.15
2022-11-29T20:11:40.447Z,53.97
2022-11-29T20:14:11.374Z,42.05
2022-11-29T20:16:40.444Z,49.38
2022-11-29T20:19:14.330Z,44.35
2022-11-29T20:21:45.406Z,46.88
2022-11-29T20:24:15.329Z,48.83
2022-11-29T20:26:46.181Z,47.17
2022-11-29T20:29:15.846Z,46.92
2022-11-29T20:31:50.058Z,48.03
2022-11-29T20:34:20.335Z,49.75
2022-11-29T20:37:07.619Z,49.13
2022-11-29T20:39:49.804Z,42.92
2022-11-29T20:45:06.368Z,49.33
2022-11-29T20:47:37.711Z,46.83
2022-11-29T20:50:06.998Z,54.73
2022-11-29T20:52:48.481Z,55.30
2022-11-29T20:55:17.142Z,54.23
2022-11-29T20:57:45.778Z,55.53
2022-11-29T21:00:15.879Z,57.17
2022-11-29T21:02:44.249Z,57.63
2022-11-29T21:05:12.780Z,54.50
2022-11-29T21:07:41.296Z,51.38
2022-11-29T21:10:10.174Z,51.08
2022-11-29T21:12:39.278Z,56.97
2022-11-29T21:15:10.472Z,59.78
2022-11-29T21:17:40.615Z,52.70
2022-11-29T21:20:18.059Z,57.17
2022-11-29T21:22:53.928Z,58.67
2022-11-29T21:25:31.600Z,60.72
2022-11-29T21:28:00.525Z,52.10
2022-11-29T21:30:29.152Z,59.97
2022-11-29T21:32:57.826Z,54.13
2022-11-29T21:35:26.280Z,62.40
2022-11-29T21:37:58.289Z,60.25
2022-11-29T21:40:27.296Z,52.97
2022-11-29T21:42:56.056Z,55.17
2022-11-29T21:45:24.497Z,54.38
2022-11-29T21:47:52.985Z,52.28
2022-11-29T21:50:21.417Z,59.45
2022-11-29T21:52:52.191Z,58.55
2022-11-29T21:55:20.553Z,55.33
2022-11-29T21:57:48.958Z,53.45
2022-11-29T22:00:17.770Z,52.42
2022-11-29T22:02:46.240Z,57.33
2022-11-29T22:05:14.805Z,55.20
2022-11-29T22:07:43.632Z,63.05
2022-11-29T22:10:13.668Z,60.13
2022-11-29T22:12:51.243Z,60.13
2022-11-29T22:15:24.498Z,60.70
2022-11-29T22:17:53.583Z,60.22
2022-11-29T22:20:22.487Z,62.47
2022-11-29T22:22:54.485Z,60.30
2022-11-29T22:25:25.691Z,54.42
2022-11-29T22:27:54.082Z,52.30
2022-11-29T22:30:22.501Z,59.17
2022-11-29T22:32:50.971Z,49.97
2022-11-29T22:35:19.330Z,52.28
2022-11-29T22:37:47.974Z,55.75
2022-11-29T22:40:16.941Z,51.17
2022-11-29T22:42:45.643Z,46.50
2022-11-29T22:45:14.186Z,53.50
2022-11-29T22:47:42.631Z,48.47
2022-11-29T22:50:11.339Z,50.08
2022-11-29T22:52:39.733Z,50.60
2022-11-29T22:55:08.521Z,50.58
2022-11-29T22:57:36.947Z,49.38
2022-11-29T23:00:06.110Z,45.17
2022-11-29T23:02:34.535Z,55.30
2022-11-29T23:05:02.953Z,53.85
2022-11-29T23:07:31.320Z,48.22
2022-11-29T23:09:59.667Z,49.20
2022-11-29T23:12:28.161Z,51.95
2022-11-29T23:14:57.129Z,51.55
2022-11-29T23:17:25.739Z,44.40
2022-11-29T23:19:54.128Z,48.17
2022-11-29T23:22:22.581Z,51.13
2022-11-29T23:24:51.022Z,46.28
2022-11-29T23:27:19.351Z,48.15
2022-11-29T23:29:47.695Z,47.33
2022-11-29T23:32:16.006Z,48.33
2022-11-29T23:34:44.673Z,52.83
2022-11-29T23:37:13.328Z,49.90
2022-11-29T23:39:41.745Z,44.97
2022-11-29T23:42:10.397Z,45.45
2022-11-29T23:44:38.740Z,47.53
2022-11-29T23:47:07.072Z,45.80
2022-11-29T23:49:35.684Z,44.83
2022-11-29T23:52:04.228Z,48.13
2022-11-29T23:54:32.653Z,43.22
2022-11-29T23:57:01.084Z,44.05
2022-11-29T23:59:29.481Z,43.28
